Time;durP1;ratioP1;P1;durP2;ratioP2;P2;SDS_P1;SDS_P2;PMS_P1;PMS_P2;Temp;Humidity;BMP_temperature;BMP_pressure;BME280_temperature;BME280_humidity;BME280_pressure;Samples;Min_cycle;Max_cycle;Signal;HPM_P1;HPM_P2
2022/04/22 09:15:18;;;;;;;;;4.00;4.00;;;;;;;;4387709;32;51500;-55
2022/04/22 09:18:14;;;;;;;;;8.00;6.50;;;;;;;;5102408;27;51048;-51
2022/04/22 09:21:02;;;;;;;;;6.50;6.00;;;;;;;;5110494;27;51043;-54
2022/04/22 09:23:49;;;;;;;;;0.00;0.00;;;;;;;;5095957;27;51103;-52
2022/04/22 09:26:33;;;;;;;;;0.00;0.00;;;;;;;;5109540;27;51081;-50
2022/04/22 09:29:18;;;;;;;;;0.00;0.00;;;;;;;;5115742;27;51186;-48
2022/04/22 09:32:03;;;;;;;;;1.75;0.00;;;;;;;;5106243;27;51105;-48
2022/04/22 09:34:48;;;;;;;;;0.25;0.00;;;;;;;;5116809;27;51005;-51
2022/04/22 09:44:22;;;;;;;;;0.00;0.00;;;;;;;;5103432;27;51106;-49
2022/04/22 09:47:20;;;;;;;;;0.00;0.00;;;;;;;;5113375;27;51106;-51
2022/04/22 09:50:12;;;;;;;;;0.00;0.00;;;;;;;;5111572;27;51094;-49
2022/04/22 09:53:10;;;;;;;;;0.00;0.00;;;;;;;;5114437;27;51166;-50
2022/04/22 09:56:03;;;;;;;;;0.00;0.00;;;;;;;;5113805;27;51138;-50
2022/04/22 09:58:49;;;;;;;;;0.00;0.00;;;;;;;;5106347;27;51126;-50
2022/04/22 10:01:41;;;;;;;;;0.00;0.00;;;;;;;;5105370;27;51444;-51
2022/04/22 10:04:27;;;;;;;;;0.00;0.00;;;;;;;;5096027;27;51373;-50
2022/04/22 10:07:30;;;;;;;;;0.00;0.00;;;;;;;;5100413;27;51122;-49
2022/04/22 10:10:23;;;;;;;;;0.00;0.00;;;;;;;;5095387;27;51004;-50
2022/04/22 10:13:25;;;;;;;;;0.00;0.00;;;;;;;;5094176;27;51104;-51
2022/04/22 10:16:12;;;;;;;;;0.25;0.00;;;;;;;;5085747;27;51188;-47
2022/04/22 10:18:58;;;;;;;;;0.00;0.00;;;;;;;;5088015;27;51055;-48
2022/04/22 10:21:46;;;;;;;;;1.00;0.00;;;;;;;;5097781;27;51196;-47
2022/04/22 10:24:33;;;;;;;;;0.00;0.00;;;;;;;;5102802;27;51162;-46
2022/04/22 10:27:18;;;;;;;;;0.50;0.00;;;;;;;;5096706;27;51156;-52
2022/04/22 10:30:03;;;;;;;;;0.00;0.00;;;;;;;;5083763;27;51352;-49
2022/04/22 10:32:51;;;;;;;;;0.00;0.00;;;;;;;;5091944;27;51217;-51
2022/04/22 10:35:43;;;;;;;;;0.00;0.00;;;;;;;;5095662;27;51128;-49
2022/04/22 10:38:28;;;;;;;;;0.00;0.00;;;;;;;;5090224;27;52496;-48
2022/04/22 10:41:14;;;;;;;;;0.00;0.00;;;;;;;;5083458;27;51104;-47
2022/04/22 10:47:14;;;;;;;;;0.00;0.00;;;;;;;;5093595;27;51120;-50
2022/04/22 10:50:24;;;;;;;;;0.00;0.00;;;;;;;;5097367;27;51205;-51
2022/04/22 10:53:27;;;;;;;;;0.00;0.00;;;;;;;;5081644;27;51147;-51
2022/04/22 10:56:30;;;;;;;;;0.00;0.00;;;;;;;;5095769;27;51222;-51
2022/04/22 10:59:21;;;;;;;;;0.00;0.00;;;;;;;;5082397;27;51193;-49
2022/04/22 11:02:30;;;;;;;;;0.00;0.00;;;;;;;;5098346;27;51142;-52
2022/04/22 11:05:32;;;;;;;;;0.00;0.00;;;;;;;;5101730;27;51443;-50
2022/04/22 11:08:25;;;;;;;;;0.00;0.00;;;;;;;;5094167;27;53317;-48
2022/04/22 11:11:19;;;;;;;;;0.00;0.00;;;;;;;;5083684;27;51347;-50
2022/04/22 11:14:25;;;;;;;;;0.00;0.00;;;;;;;;5088894;27;51185;-50
2022/04/22 11:17:33;;;;;;;;;0.75;0.00;;;;;;;;5080396;27;51193;-51
2022/04/22 11:20:22;;;;;;;;;0.00;0.00;;;;;;;;5095224;27;51411;-47
2022/04/22 11:23:06;;;;;;;;;0.25;0.00;;;;;;;;5081651;27;51449;-48
2022/04/22 11:25:52;;;;;;;;;0.00;0.00;;;;;;;;5097452;27;51024;-51
2022/04/22 11:28:38;;;;;;;;;0.00;0.00;;;;;;;;5086448;27;51292;-52
2022/04/22 11:31:26;;;;;;;;;0.00;0.00;;;;;;;;5083031;27;51049;-51
2022/04/22 11:34:20;;;;;;;;;1.00;0.00;;;;;;;;5080375;27;51119;-52
2022/04/22 11:37:16;;;;;;;;;0.00;0.00;;;;;;;;5080064;27;51194;-53
2022/04/22 11:40:00;;;;;;;;;0.00;0.00;;;;;;;;5080561;27;51529;-51
2022/04/22 11:42:46;;;;;;;;;0.00;0.00;;;;;;;;5095259;27;51001;-55
2022/04/22 11:45:32;;;;;;;;;0.00;0.00;;;;;;;;5100508;27;51120;-49
2022/04/22 11:48:30;;;;;;;;;0.25;0.00;;;;;;;;5080517;27;51199;-49
2022/04/22 11:51:16;;;;;;;;;0.00;0.00;;;;;;;;5080020;27;51025;-50
2022/04/22 11:54:06;;;;;;;;;1.00;0.00;;;;;;;;5091122;27;51162;-51
2022/04/22 11:56:58;;;;;;;;;0.00;0.00;;;;;;;;5100743;27;51095;-47
2022/04/22 12:06:10;;;;;;;;;0.00;0.00;;;;;;;;5082223;27;52333;-52
2022/04/22 12:09:03;;;;;;;;;0.00;0.00;;;;;;;;5088439;27;51107;-50
2022/04/22 12:12:11;;;;;;;;;0.00;0.00;;;;;;;;5090767;27;51142;-47
2022/04/22 12:15:21;;;;;;;;;1.00;0.00;;;;;;;;5098633;27;51187;-50
2022/04/22 12:18:33;;;;;;;;;0.00;0.00;;;;;;;;5079809;27;51150;-47
2022/04/22 12:21:18;;;;;;;;;0.00;0.00;;;;;;;;5091477;27;51071;-49
2022/04/22 12:24:04;;;;;;;;;1.00;1.00;;;;;;;;5086176;27;51449;-48
2022/04/22 12:26:50;;;;;;;;;0.00;0.00;;;;;;;;5084342;27;51113;-52
2022/04/22 12:29:38;;;;;;;;;0.00;0.00;;;;;;;;5079361;27;51399;-49
2022/04/22 12:32:24;;;;;;;;;0.00;0.00;;;;;;;;5096785;27;51508;-51
2022/04/22 12:35:12;;;;;;;;;0.50;0.00;;;;;;;;5082619;27;51205;-48
2022/04/22 12:37:58;;;;;;;;;1.75;0.00;;;;;;;;5083641;27;51195;-51
2022/04/22 12:40:59;;;;;;;;;0.00;0.00;;;;;;;;5089135;27;51140;-53
2022/04/22 12:43:53;;;;;;;;;0.00;0.00;;;;;;;;5081726;27;51445;-51
2022/04/22 12:52:47;;;;;;;;;0.00;0.00;;;;;;;;5078927;27;51160;-53
2022/04/22 12:55:32;;;;;;;;;0.00;0.00;;;;;;;;5087511;27;51115;-47
2022/04/22 12:58:16;;;;;;;;;0.75;0.00;;;;;;;;5083624;27;51391;-51
2022/04/22 13:01:27;;;;;;;;;1.00;0.00;;;;;;;;5084037;27;51206;-47
2022/04/22 13:04:44;;;;;;;;;0.00;0.00;;;;;;;;5095235;27;51011;-51
2022/04/22 13:07:44;;;;;;;;;0.00;0.00;;;;;;;;5099659;27;51181;-53
2022/04/22 13:10:53;;;;;;;;;0.00;0.00;;;;;;;;5093047;27;51107;-50
2022/04/22 13:13:43;;;;;;;;;0.00;0.00;;;;;;;;5078503;27;51127;-49
2022/04/22 13:16:39;;;;;;;;;1.50;0.00;;;;;;;;5086398;27;51552;-47
2022/04/22 13:19:23;;;;;;;;;0.00;0.00;;;;;;;;5086098;27;51181;-50
2022/04/22 13:22:09;;;;;;;;;2.00;0.00;;;;;;;;5096622;27;51269;-50
2022/04/22 13:24:58;;;;;;;;;0.00;0.00;;;;;;;;5078615;27;51075;-51
2022/04/22 13:28:06;;;;;;;;;2.25;1.25;;;;;;;;5089053;27;51110;-51
2022/04/22 13:30:50;;;;;;;;;4.25;3.00;;;;;;;;5078917;27;51449;-49
2022/04/22 13:33:35;;;;;;;;;1.00;1.00;;;;;;;;5077972;27;51357;-47
2022/04/22 13:36:49;;;;;;;;;7.75;5.25;;;;;;;;5087864;27;51163;-49
2022/04/22 13:39:47;;;;;;;;;9.75;7.25;;;;;;;;5083116;27;51206;-50
2022/04/22 13:42:32;;;;;;;;;0.00;0.00;;;;;;;;5095800;27;51321;-50
2022/04/22 13:54:37;;;;;;;;;2.75;0.75;;;;;;;;5084113;27;51222;-48
2022/04/22 13:57:21;;;;;;;;;2.00;2.00;;;;;;;;5087501;27;51340;-51
2022/04/22 14:00:06;;;;;;;;;0.00;0.00;;;;;;;;5085014;27;51332;-51
2022/04/22 14:02:52;;;;;;;;;0.00;0.00;;;;;;;;5086861;27;51124;-47
2022/04/22 14:05:36;;;;;;;;;1.00;1.00;;;;;;;;5090510;27;51123;-49
2022/04/22 14:08:21;;;;;;;;;0.00;0.00;;;;;;;;5084682;27;51115;-47
2022/04/22 14:11:08;;;;;;;;;0.00;0.00;;;;;;;;5083387;27;51160;-50
2022/04/22 14:13:53;;;;;;;;;0.00;0.00;;;;;;;;5082435;27;51036;-47
2022/04/22 14:16:52;;;;;;;;;0.50;0.00;;;;;;;;5081253;27;51194;-47
2022/04/22 14:19:37;;;;;;;;;0.50;0.00;;;;;;;;5083800;27;51079;-50
2022/04/22 14:22:54;;;;;;;;;0.00;0.00;;;;;;;;5101656;27;51319;-53
2022/04/22 14:25:47;;;;;;;;;0.00;0.00;;;;;;;;5085444;27;51290;-50
2022/04/22 14:28:32;;;;;;;;;0.00;0.00;;;;;;;;5087905;27;51156;-49
2022/04/22 14:31:24;;;;;;;;;0.75;0.00;;;;;;;;5102654;27;51012;-50
2022/04/22 14:34:09;;;;;;;;;0.00;0.00;;;;;;;;5095545;27;51476;-47
2022/04/22 14:37:01;;;;;;;;;2.75;0.00;;;;;;;;5090011;27;51158;-49
2022/04/22 14:40:07;;;;;;;;;0.00;0.00;;;;;;;;5081618;27;51324;-49
2022/04/22 14:42:56;;;;;;;;;0.50;0.00;;;;;;;;5082543;27;51052;-49
2022/04/22 14:45:42;;;;;;;;;0.00;0.00;;;;;;;;5084052;27;51042;-54
2022/04/22 14:48:37;;;;;;;;;0.00;0.00;;;;;;;;5082147;27;51108;-52
2022/04/22 14:51:22;;;;;;;;;3.25;0.75;;;;;;;;5086219;27;51351;-51
2022/04/22 14:54:21;;;;;;;;;0.00;0.00;;;;;;;;5090280;27;51215;-50
2022/04/22 14:57:08;;;;;;;;;1.50;0.00;;;;;;;;5081351;27;51518;-50
2022/04/22 14:59:53;;;;;;;;;0.00;0.00;;;;;;;;5085414;27;51461;-49
2022/04/22 15:02:38;;;;;;;;;0.00;0.00;;;;;;;;5080734;27;51208;-48
2022/04/22 15:05:23;;;;;;;;;0.75;0.00;;;;;;;;5080011;27;51420;-50
2022/04/22 15:08:09;;;;;;;;;0.75;0.00;;;;;;;;5088088;27;51160;-52
2022/04/22 15:10:54;;;;;;;;;0.75;0.00;;;;;;;;5082802;27;51162;-50
2022/04/22 15:13:38;;;;;;;;;0.75;0.00;;;;;;;;5080504;27;51126;-52
2022/04/22 15:16:28;;;;;;;;;0.00;0.00;;;;;;;;5079560;27;51358;-50
2022/04/22 15:25:31;;;;;;;;;0.00;0.00;;;;;;;;5082885;27;51125;-51
2022/04/22 15:28:19;;;;;;;;;0.00;0.00;;;;;;;;5082676;27;51299;-51
2022/04/22 15:31:18;;;;;;;;;1.00;0.00;;;;;;;;5087841;27;51494;-51
2022/04/22 15:34:11;;;;;;;;;0.00;0.00;;;;;;;;5084327;27;51219;-50
2022/04/22 15:37:06;;;;;;;;;0.00;0.00;;;;;;;;5082881;27;51048;-52
2022/04/22 15:39:58;;;;;;;;;0.00;0.00;;;;;;;;5082607;27;51221;-52
2022/04/22 15:42:49;;;;;;;;;1.00;0.00;;;;;;;;5088628;27;51443;-52
2022/04/22 15:45:43;;;;;;;;;0.00;0.00;;;;;;;;5085391;27;51199;-48
2022/04/22 15:48:30;;;;;;;;;0.00;0.00;;;;;;;;5085921;27;51109;-50
2022/04/22 15:51:17;;;;;;;;;0.00;0.00;;;;;;;;5099760;27;50972;-51
2022/04/22 15:54:13;;;;;;;;;0.00;0.00;;;;;;;;5096728;27;51069;-51
2022/04/22 15:56:59;;;;;;;;;0.00;0.00;;;;;;;;5080410;27;51265;-47
2022/04/22 15:59:44;;;;;;;;;4.25;2.00;;;;;;;;5081519;27;51229;-51
2022/04/22 16:02:28;;;;;;;;;0.00;0.00;;;;;;;;5082711;27;51166;-49
2022/04/22 16:05:36;;;;;;;;;0.00;0.00;;;;;;;;5079698;27;51168;-49
2022/04/22 16:08:34;;;;;;;;;0.00;0.00;;;;;;;;5093787;27;51275;-51
2022/04/22 16:17:36;;;;;;;;;0.00;0.00;;;;;;;;5082071;27;51374;-48
2022/04/22 16:20:28;;;;;;;;;0.00;0.00;;;;;;;;5080860;27;51111;-49
2022/04/22 16:23:16;;;;;;;;;1.25;0.00;;;;;;;;5088116;27;51453;-51
2022/04/22 16:26:02;;;;;;;;;0.25;0.00;;;;;;;;5083051;27;51354;-49
2022/04/22 16:28:46;;;;;;;;;0.00;0.00;;;;;;;;5082159;27;51111;-49
2022/04/22 16:31:32;;;;;;;;;0.00;0.00;;;;;;;;5086777;27;51455;-51
2022/04/22 16:34:18;;;;;;;;;1.25;0.00;;;;;;;;5087195;27;51411;-50
2022/04/22 16:37:03;;;;;;;;;2.50;0.00;;;;;;;;5086983;27;51175;-49
2022/04/22 16:39:48;;;;;;;;;0.00;0.00;;;;;;;;5083865;27;51095;-52
2022/04/22 16:42:38;;;;;;;;;0.00;0.00;;;;;;;;5081137;27;51168;-52
2022/04/22 16:45:43;;;;;;;;;1.00;0.75;;;;;;;;5080584;27;51132;-52
2022/04/22 16:48:27;;;;;;;;;0.75;0.75;;;;;;;;5088394;27;51189;-50
2022/04/22 16:51:13;;;;;;;;;2.50;0.75;;;;;;;;5080219;27;51136;-49
2022/04/22 16:53:58;;;;;;;;;1.75;0.75;;;;;;;;5092717;27;51384;-48
2022/04/22 16:56:43;;;;;;;;;0.25;0.00;;;;;;;;5078497;27;51017;-51
2022/04/22 16:59:27;;;;;;;;;1.75;0.50;;;;;;;;5081478;27;51115;-52
2022/04/22 17:02:17;;;;;;;;;1.00;0.50;;;;;;;;5078010;27;51049;-52
2022/04/22 17:05:03;;;;;;;;;0.00;0.00;;;;;;;;5077758;27;51043;-52
2022/04/22 17:07:54;;;;;;;;;0.00;0.00;;;;;;;;5080375;27;51427;-51
2022/04/22 17:10:38;;;;;;;;;2.25;1.00;;;;;;;;5080603;27;51159;-47
2022/04/22 17:13:24;;;;;;;;;1.50;0.00;;;;;;;;5077631;27;51087;-48
2022/04/22 17:22:41;;;;;;;;;2.75;0.75;;;;;;;;5086196;27;51392;-52
2022/04/22 17:25:51;;;;;;;;;1.25;1.00;;;;;;;;5081612;27;51496;-47
2022/04/22 17:28:44;;;;;;;;;2.50;0.75;;;;;;;;5085351;27;51210;-47
2022/04/22 17:31:39;;;;;;;;;1.25;0.75;;;;;;;;5084395;27;51357;-50
2022/04/22 17:34:24;;;;;;;;;0.00;0.00;;;;;;;;5091381;27;51138;-48
2022/04/22 17:37:12;;;;;;;;;1.75;0.75;;;;;;;;5085225;27;51144;-49
2022/04/22 17:39:57;;;;;;;;;1.00;0.00;;;;;;;;5083748;27;51396;-47
2022/04/22 17:42:43;;;;;;;;;0.75;0.75;;;;;;;;5096239;27;51125;-48
2022/04/22 17:45:29;;;;;;;;;2.00;0.00;;;;;;;;5089140;27;51064;-52
2022/04/22 17:48:13;;;;;;;;;0.75;0.00;;;;;;;;5090844;27;51164;-49
2022/04/22 17:51:04;;;;;;;;;0.25;0.00;;;;;;;;5092715;27;51409;-51
2022/04/22 17:53:51;;;;;;;;;1.50;0.50;;;;;;;;5083313;27;50954;-49
2022/04/22 17:56:39;;;;;;;;;1.00;1.00;;;;;;;;5083629;27;50998;-48
2022/04/22 17:59:29;;;;;;;;;4.00;2.75;;;;;;;;5082822;27;51137;-48
2022/04/22 18:02:14;;;;;;;;;3.00;1.25;;;;;;;;5102907;27;51122;-51
2022/04/22 18:05:01;;;;;;;;;2.25;1.00;;;;;;;;5103206;27;51207;-51
2022/04/22 18:07:49;;;;;;;;;4.00;0.25;;;;;;;;5087055;27;51148;-49
2022/04/22 18:10:38;;;;;;;;;1.00;1.00;;;;;;;;5082732;27;51068;-48
2022/04/22 18:13:38;;;;;;;;;2.50;0.00;;;;;;;;5082599;27;51369;-50
2022/04/22 18:16:24;;;;;;;;;3.25;1.00;;;;;;;;5082622;27;51124;-53
2022/04/22 18:19:14;;;;;;;;;3.25;2.75;;;;;;;;5100689;27;51154;-50
2022/04/22 18:21:59;;;;;;;;;2.75;1.00;;;;;;;;5103156;27;51068;-50
2022/04/22 18:24:55;;;;;;;;;2.00;2.00;;;;;;;;5094662;27;51585;-49
2022/04/22 18:27:42;;;;;;;;;2.50;2.25;;;;;;;;5082830;27;51190;-49
2022/04/22 18:30:33;;;;;;;;;4.00;2.50;;;;;;;;5085878;27;51124;-49
2022/04/22 18:33:27;;;;;;;;;1.50;0.75;;;;;;;;5089186;27;53019;-48
2022/04/22 18:36:13;;;;;;;;;3.75;1.75;;;;;;;;5081456;27;51040;-48
2022/04/22 18:39:07;;;;;;;;;1.75;1.75;;;;;;;;5082404;27;51125;-49
2022/04/22 18:41:56;;;;;;;;;3.00;1.00;;;;;;;;5082526;27;50978;-49
2022/04/22 18:44:42;;;;;;;;;1.75;1.00;;;;;;;;5082073;27;51369;-50
2022/04/22 18:47:37;;;;;;;;;3.75;2.75;;;;;;;;5082553;27;51175;-50
2022/04/22 18:50:24;;;;;;;;;0.25;0.25;;;;;;;;5081565;27;51396;-49
2022/04/22 18:53:10;;;;;;;;;1.00;0.75;;;;;;;;5080781;27;51182;-48
2022/04/22 18:55:54;;;;;;;;;1.00;0.00;;;;;;;;5082464;27;51456;-48
2022/04/22 18:58:39;;;;;;;;;1.50;1.25;;;;;;;;5090745;27;51095;-51
2022/04/22 19:01:26;;;;;;;;;0.75;0.75;;;;;;;;5081215;27;51255;-52
2022/04/22 19:04:41;;;;;;;;;0.75;0.75;;;;;;;;5099883;27;50973;-49
2022/04/22 19:07:27;;;;;;;;;3.75;2.00;;;;;;;;5101152;27;51084;-49
2022/04/22 19:10:15;;;;;;;;;0.75;0.75;;;;;;;;5081524;27;51111;-47
2022/04/22 19:13:00;;;;;;;;;2.50;2.50;;;;;;;;5090558;27;51042;-50
2022/04/22 19:15:46;;;;;;;;;0.25;0.25;;;;;;;;5082553;27;51320;-49
2022/04/22 19:18:33;;;;;;;;;0.00;0.00;;;;;;;;5081401;27;51114;-50
2022/04/22 19:21:21;;;;;;;;;1.75;1.75;;;;;;;;5088934;27;51199;-52
2022/04/22 19:24:07;;;;;;;;;1.75;0.25;;;;;;;;5086468;27;51140;-51
2022/04/22 19:26:51;;;;;;;;;0.50;0.50;;;;;;;;5080893;27;51463;-51
2022/04/22 19:29:37;;;;;;;;;2.00;0.75;;;;;;;;5080938;27;51084;-47
2022/04/22 19:32:23;;;;;;;;;1.75;0.75;;;;;;;;5081449;27;51364;-51
2022/04/22 19:35:09;;;;;;;;;2.50;0.75;;;;;;;;5081199;27;51484;-50
2022/04/22 19:41:03;;;;;;;;;4.25;0.75;;;;;;;;5082942;27;51063;-51
2022/04/22 19:43:57;;;;;;;;;1.00;1.00;;;;;;;;5101106;27;51153;-49
2022/04/22 19:47:01;;;;;;;;;1.00;1.00;;;;;;;;5082186;27;51014;-49
2022/04/22 19:49:47;;;;;;;;;0.50;0.50;;;;;;;;5098548;27;51027;-49
2022/04/22 19:52:33;;;;;;;;;0.00;0.00;;;;;;;;5086423;27;51389;-49
2022/04/22 19:55:43;;;;;;;;;2.25;1.25;;;;;;;;5080757;27;51205;-47
2022/04/22 19:58:28;;;;;;;;;1.25;1.25;;;;;;;;5081010;27;51411;-50
2022/04/22 20:01:16;;;;;;;;;1.75;1.00;;;;;;;;5088830;27;51212;-47
2022/04/22 20:04:03;;;;;;;;;4.75;1.75;;;;;;;;5080547;27;51069;-50
2022/04/22 20:06:48;;;;;;;;;1.50;1.25;;;;;;;;5080299;27;51352;-49
2022/04/22 20:09:32;;;;;;;;;2.75;0.75;;;;;;;;5079377;27;51117;-48
2022/04/22 20:12:17;;;;;;;;;4.00;2.50;;;;;;;;5081966;27;51072;-49
2022/04/22 20:15:02;;;;;;;;;4.75;1.75;;;;;;;;5099931;27;51110;-48
2022/04/22 20:17:46;;;;;;;;;5.00;2.50;;;;;;;;5100692;27;51153;-49
2022/04/22 20:20:33;;;;;;;;;2.00;1.00;;;;;;;;5100529;27;51121;-49
2022/04/22 20:23:29;;;;;;;;;3.50;0.75;;;;;;;;5100094;27;51043;-50
2022/04/22 20:26:14;;;;;;;;;2.25;1.25;;;;;;;;5096882;27;51137;-47
2022/04/22 20:29:07;;;;;;;;;4.75;2.00;;;;;;;;5100996;27;51085;-51
2022/04/22 20:32:21;;;;;;;;;1.75;1.75;;;;;;;;5100578;27;51329;-49
2022/04/22 20:41:24;;;;;;;;;4.00;2.00;;;;;;;;5087005;27;51125;-48
2022/04/22 20:44:24;;;;;;;;;2.75;1.25;;;;;;;;5093986;27;51966;-48
2022/04/22 20:47:22;;;;;;;;;4.75;1.75;;;;;;;;5088568;27;51250;-50
2022/04/22 20:50:17;;;;;;;;;4.25;3.75;;;;;;;;5080208;27;51359;-49
2022/04/22 20:56:09;;;;;;;;;4.00;4.00;;;;;;;;5097962;27;51013;-50
2022/04/22 20:58:54;;;;;;;;;5.50;3.00;;;;;;;;5099410;27;51127;-50
2022/04/22 21:01:43;;;;;;;;;4.25;4.25;;;;;;;;5082421;27;51112;-50
2022/04/22 21:04:29;;;;;;;;;1.50;1.50;;;;;;;;5079715;27;51339;-50
2022/04/22 21:07:21;;;;;;;;;2.00;2.00;;;;;;;;5080080;27;51167;-51
2022/04/22 21:10:06;;;;;;;;;2.75;2.75;;;;;;;;5079064;27;51486;-50
2022/04/22 21:12:54;;;;;;;;;3.00;2.00;;;;;;;;5079684;27;51051;-49
2022/04/22 21:15:39;;;;;;;;;3.00;3.00;;;;;;;;5079419;27;51250;-49
2022/04/22 21:18:32;;;;;;;;;4.25;2.75;;;;;;;;5079395;27;51098;-50
2022/04/22 21:21:39;;;;;;;;;5.50;4.00;;;;;;;;5095815;27;51182;-48
2022/04/22 21:24:33;;;;;;;;;8.75;5.25;;;;;;;;5079135;27;51357;-51
2022/04/22 21:27:28;;;;;;;;;9.00;6.00;;;;;;;;5079348;27;51189;-47
2022/04/22 21:30:15;;;;;;;;;6.00;5.00;;;;;;;;5088967;27;51507;-49
2022/04/22 21:33:11;;;;;;;;;5.25;3.00;;;;;;;;5094690;27;50991;-49
2022/04/22 21:36:05;;;;;;;;;5.25;2.00;;;;;;;;5098480;27;51149;-49
2022/04/22 21:38:53;;;;;;;;;2.50;2.25;;;;;;;;5098498;27;51104;-51
2022/04/22 21:41:38;;;;;;;;;4.00;4.00;;;;;;;;5099815;27;51339;-50
2022/04/22 21:44:24;;;;;;;;;4.00;4.00;;;;;;;;5099349;27;51062;-49
2022/04/22 21:47:09;;;;;;;;;3.50;3.00;;;;;;;;5094129;27;51163;-51
2022/04/22 21:49:54;;;;;;;;;4.25;2.50;;;;;;;;5079179;27;51114;-47
2022/04/22 21:52:39;;;;;;;;;3.00;3.00;;;;;;;;5079240;27;51684;-47
2022/04/22 21:55:29;;;;;;;;;5.25;5.00;;;;;;;;5079044;27;51066;-48
2022/04/22 21:58:14;;;;;;;;;2.75;2.75;;;;;;;;5096675;27;51020;-50
2022/04/22 22:01:00;;;;;;;;;5.25;4.25;;;;;;;;5099406;27;51171;-49
2022/04/22 22:03:44;;;;;;;;;5.25;4.00;;;;;;;;5099435;27;51161;-51
2022/04/22 22:06:28;;;;;;;;;9.25;6.25;;;;;;;;5099697;27;51331;-49
2022/04/22 22:09:15;;;;;;;;;5.25;4.25;;;;;;;;5093885;27;51042;-48
2022/04/22 22:11:59;;;;;;;;;4.25;4.00;;;;;;;;5090718;27;51034;-48
2022/04/22 22:14:45;;;;;;;;;4.00;4.00;;;;;;;;5099990;27;51447;-51
2022/04/22 22:17:29;;;;;;;;;5.75;5.75;;;;;;;;5103346;27;51299;-50
2022/04/22 22:20:16;;;;;;;;;8.25;5.00;;;;;;;;5102776;27;50991;-50
2022/04/22 22:23:01;;;;;;;;;5.00;4.50;;;;;;;;5102929;27;51159;-48
2022/04/22 22:25:46;;;;;;;;;6.00;4.25;;;;;;;;5102540;27;51051;-50
2022/04/22 22:28:32;;;;;;;;;7.50;4.50;;;;;;;;5082597;27;51059;-50
2022/04/22 22:31:18;;;;;;;;;6.25;4.25;;;;;;;;5081404;27;51126;-50
2022/04/22 22:34:02;;;;;;;;;6.25;4.00;;;;;;;;5090797;27;51140;-48
2022/04/22 22:36:47;;;;;;;;;5.00;4.50;;;;;;;;5087127;27;51058;-50
2022/04/22 22:39:31;;;;;;;;;6.00;6.00;;;;;;;;5081922;27;51104;-52
2022/04/22 22:42:17;;;;;;;;;6.50;4.00;;;;;;;;5081971;27;51537;-50
2022/04/22 22:45:01;;;;;;;;;4.25;4.00;;;;;;;;5081966;27;51174;-47
2022/04/22 22:47:47;;;;;;;;;3.75;3.75;;;;;;;;5082317;27;50991;-50
2022/04/22 22:50:31;;;;;;;;;3.75;3.75;;;;;;;;5081881;27;51092;-49
2022/04/22 22:53:19;;;;;;;;;7.75;5.25;;;;;;;;5090024;27;51126;-48
2022/04/22 22:56:06;;;;;;;;;4.25;4.00;;;;;;;;5102623;27;51445;-48
2022/04/22 22:58:50;;;;;;;;;5.25;5.25;;;;;;;;5098885;27;51035;-48
2022/04/22 23:01:34;;;;;;;;;4.50;4.50;;;;;;;;5080956;27;51290;-47
2022/04/22 23:04:31;;;;;;;;;6.75;5.00;;;;;;;;5100236;27;51465;-49
2022/04/22 23:07:26;;;;;;;;;5.75;5.00;;;;;;;;5085557;27;51089;-47
2022/04/22 23:10:15;;;;;;;;;5.50;4.00;;;;;;;;5097659;27;51046;-48
2022/04/22 23:13:02;;;;;;;;;8.25;4.75;;;;;;;;5102010;27;51177;-48
2022/04/22 23:15:46;;;;;;;;;4.00;4.00;;;;;;;;5101874;27;51613;-47
2022/04/22 23:18:33;;;;;;;;;6.75;3.75;;;;;;;;5101863;27;51113;-50
2022/04/22 23:21:17;;;;;;;;;4.00;4.00;;;;;;;;5102086;27;51363;-48
2022/04/22 23:24:02;;;;;;;;;4.00;4.00;;;;;;;;5089723;27;51046;-47
2022/04/22 23:26:46;;;;;;;;;6.75;5.00;;;;;;;;5094951;27;51243;-49
2022/04/22 23:29:35;;;;;;;;;4.50;4.00;;;;;;;;5097115;27;51357;-50
2022/04/22 23:32:22;;;;;;;;;7.25;6.00;;;;;;;;5101792;27;51266;-48
2022/04/22 23:35:09;;;;;;;;;18.75;15.50;;;;;;;;5101733;27;51138;-49
2022/04/22 23:37:54;;;;;;;;;32.25;27.75;;;;;;;;5101624;27;51076;-49
2022/04/22 23:40:41;;;;;;;;;21.50;17.25;;;;;;;;5084563;27;51117;-49
2022/04/22 23:43:37;;;;;;;;;8.75;7.75;;;;;;;;5080614;27;51086;-47
2022/04/22 23:46:23;;;;;;;;;6.50;5.50;;;;;;;;5096404;27;51031;-49
2022/04/22 23:49:09;;;;;;;;;11.50;6.75;;;;;;;;5100148;27;51115;-50
2022/04/22 23:51:55;;;;;;;;;5.50;4.75;;;;;;;;5101560;27;51162;-48
2022/04/22 23:54:44;;;;;;;;;10.00;5.00;;;;;;;;5100881;27;51375;-49
2022/04/22 23:57:30;;;;;;;;;8.25;6.00;;;;;;;;5101291;27;51138;-49
